createdAt,value
2018-10-04T00:00:14.779Z,83.46
2018-10-04T00:01:14.787Z,83.84
2018-10-04T00:02:14.808Z,83.75
2018-10-04T00:03:14.900Z,83.84
2018-10-04T00:04:14.856Z,83.23
2018-10-04T00:05:14.866Z,83.70
2018-10-04T00:06:14.882Z,85.14
2018-10-04T00:07:14.901Z,85.14
2018-10-04T00:08:14.923Z,84.85
2018-10-04T00:09:15.040Z,85.71
2018-10-04T00:10:14.969Z,84.95
2018-10-04T00:11:14.983Z,85.24
2018-10-04T00:12:15.002Z,84.47
2018-10-04T00:13:15.017Z,83.37
2018-10-04T00:14:15.032Z,82.22
2018-10-04T00:15:15.066Z,80.92
2018-10-04T00:16:15.083Z,81.55
2018-10-04T00:17:15.087Z,82.12
2018-10-04T00:18:15.113Z,81.26
2018-10-04T00:19:15.129Z,80.44
2018-10-04T00:20:15.168Z,80.30
2018-10-04T00:21:15.174Z,81.07
2018-10-04T00:22:15.188Z,81.74
2018-10-04T00:23:15.211Z,82.75
2018-10-04T00:24:15.236Z,83.23
2018-10-04T00:25:15.238Z,83.61
2018-10-04T00:26:15.267Z,83.80
2018-10-04T00:27:15.287Z,84.43
2018-10-04T00:28:15.299Z,84.56
2018-10-04T00:29:15.322Z,83.80
2018-10-04T00:30:15.342Z,83.33
2018-10-04T00:31:15.364Z,83.04
2018-10-04T00:32:15.379Z,83.61
2018-10-04T00:33:15.399Z,83.13
2018-10-04T00:34:15.419Z,83.13
2018-10-04T00:35:15.452Z,83.33
2018-10-04T00:36:15.452Z,82.08
2018-10-04T00:37:15.483Z,81.93
2018-10-04T00:38:15.484Z,82.28
2018-10-04T00:39:15.506Z,82.37
2018-10-04T00:40:15.528Z,82.56
2018-10-04T00:41:15.554Z,82.46
2018-10-04T00:42:15.596Z,82.41
2018-10-04T00:43:15.583Z,82.03
2018-10-04T00:44:15.673Z,80.50
2018-10-04T00:45:15.619Z,81.16
2018-10-04T00:46:15.649Z,81.55
2018-10-04T00:47:15.660Z,80.69
2018-10-04T00:48:15.687Z,80.79
2018-10-04T00:49:15.708Z,80.40
2018-10-04T00:50:15.716Z,79.64
2018-10-04T00:51:15.734Z,80.02
2018-10-04T00:52:15.762Z,79.93
2018-10-04T00:53:15.786Z,80.65
2018-10-04T00:54:15.792Z,82.08
2018-10-04T00:55:15.860Z,82.37
2018-10-04T00:56:15.832Z,83.57
2018-10-04T00:57:15.848Z,84.05
2018-10-04T00:58:15.864Z,83.47
2018-10-04T00:59:15.883Z,84.05
2018-10-04T01:00:15.903Z,83.67
2018-10-04T01:01:15.934Z,83.09
2018-10-04T01:02:15.946Z,83.47
2018-10-04T01:03:15.961Z,83.47
2018-10-04T01:04:15.980Z,83.09
2018-10-04T01:05:16.101Z,82.71
2018-10-04T01:06:16.026Z,83.38
2018-10-04T01:07:16.033Z,82.90
2018-10-04T01:08:16.089Z,83.09
2018-10-04T01:09:16.089Z,83.09
2018-10-04T01:10:16.101Z,82.71
2018-10-04T01:11:16.117Z,82.32
2018-10-04T01:12:16.149Z,82.71
2018-10-04T01:13:16.168Z,83.00
2018-10-04T01:14:16.171Z,82.61
2018-10-04T01:15:16.183Z,82.42
2018-10-04T01:16:16.210Z,82.32
2018-10-04T01:17:16.218Z,82.04
2018-10-04T01:18:16.245Z,82.71
2018-10-04T01:19:16.257Z,81.95
2018-10-04T01:20:16.279Z,81.95
2018-10-04T01:21:16.295Z,80.99
2018-10-04T01:22:16.317Z,81.09
2018-10-04T01:23:16.383Z,81.56
2018-10-04T01:24:16.356Z,81.37
2018-10-04T01:25:16.369Z,81.27
2018-10-04T01:26:16.395Z,81.56
2018-10-04T01:27:16.413Z,81.85
2018-10-04T01:28:16.426Z,82.23
2018-10-04T01:29:16.458Z,82.14
2018-10-04T01:30:16.470Z,81.95
2018-10-04T01:31:16.496Z,81.27
2018-10-04T01:32:16.514Z,80.90
2018-10-04T01:33:16.526Z,79.75
2018-10-04T01:34:16.616Z,80.70
2018-10-04T01:35:16.570Z,81.47
2018-10-04T01:36:16.630Z,80.90
2018-10-04T01:37:16.598Z,80.41
2018-10-04T01:38:16.616Z,80.51
2018-10-04T01:39:16.632Z,79.85
2018-10-04T01:40:16.658Z,80.13
2018-10-04T01:41:16.676Z,79.85
2018-10-04T01:42:16.706Z,79.46
2018-10-04T01:43:16.705Z,79.31
2018-10-04T01:44:16.732Z,79.08
2018-10-04T01:45:16.766Z,79.94
2018-10-04T01:46:16.768Z,79.75
2018-10-04T01:47:16.800Z,80.61
2018-10-04T01:48:16.797Z,80.28
2018-10-04T01:49:16.838Z,81.37
2018-10-04T01:50:16.838Z,80.22
2018-10-04T01:51:16.859Z,80.13
2018-10-04T01:52:16.874Z,80.32
2018-10-04T01:53:16.902Z,79.85
2018-10-04T01:54:16.933Z,78.03
2018-10-04T01:55:16.930Z,79.17
2018-10-04T01:56:16.956Z,78.89
2018-10-04T01:57:16.968Z,78.64
2018-10-04T01:58:16.993Z,78.70
2018-10-04T01:59:17.005Z,78.51
2018-10-04T02:00:17.042Z,78.89
2018-10-04T02:01:17.045Z,78.89
2018-10-04T02:02:17.065Z,79.08
2018-10-04T02:03:17.078Z,78.55
2018-10-04T02:04:17.168Z,77.40
2018-10-04T02:05:17.120Z,77.01
2018-10-04T02:06:17.138Z,76.35
2018-10-04T02:07:17.173Z,77.11
2018-10-04T02:08:17.180Z,77.50
2018-10-04T02:09:17.195Z,77.74
2018-10-04T02:10:17.209Z,78.99
2018-10-04T02:11:17.245Z,78.36
2018-10-04T02:12:17.258Z,77.94
2018-10-04T02:13:17.264Z,78.22
2018-10-04T02:14:17.293Z,78.89
2018-10-04T02:15:17.385Z,78.89
2018-10-04T02:16:17.320Z,78.41
2018-10-04T02:17:17.347Z,78.99
2018-10-04T02:18:17.358Z,78.51
2018-10-04T02:19:17.377Z,79.17
2018-10-04T02:20:17.402Z,79.80
2018-10-04T02:21:17.411Z,80.09
2018-10-04T02:22:17.445Z,80.13
2018-10-04T02:23:17.456Z,80.47
2018-10-04T02:24:17.470Z,80.09
2018-10-04T02:25:17.490Z,79.17
2018-10-04T02:26:17.499Z,79.71
2018-10-04T02:27:17.530Z,79.80
2018-10-04T02:28:17.542Z,80.66
2018-10-04T02:29:17.561Z,81.14
2018-10-04T02:30:17.580Z,81.33
2018-10-04T02:31:17.597Z,79.75
2018-10-04T02:32:17.617Z,79.17
2018-10-04T02:33:17.633Z,78.16
2018-10-04T02:34:17.651Z,78.03
2018-10-04T02:35:17.671Z,78.03
2018-10-04T02:36:17.693Z,77.40
2018-10-04T02:37:17.728Z,76.45
2018-10-04T02:38:17.728Z,75.68
2018-10-04T02:39:17.744Z,75.68
2018-10-04T02:40:17.768Z,76.25
2018-10-04T02:41:17.782Z,75.96
2018-10-04T02:42:17.816Z,76.54
2018-10-04T02:43:17.818Z,77.11
2018-10-04T02:44:17.841Z,76.64
2018-10-04T02:45:17.869Z,77.08
2018-10-04T02:46:17.877Z,77.84
2018-10-04T02:47:17.892Z,77.84
2018-10-04T02:48:17.910Z,77.84
2018-10-04T02:49:17.924Z,78.70
2018-10-04T02:50:17.953Z,79.52
2018-10-04T02:51:17.962Z,79.99
2018-10-04T02:52:17.981Z,79.90
2018-10-04T02:53:17.993Z,79.99
2018-10-04T02:54:18.030Z,80.62
2018-10-04T02:55:18.045Z,80.66
2018-10-04T02:56:18.057Z,79.71
2018-10-04T02:57:18.074Z,79.27
2018-10-04T02:58:18.101Z,78.22
2018-10-04T02:59:18.112Z,78.13
2018-10-04T03:00:18.139Z,76.88
2018-10-04T03:01:18.157Z,76.60
2018-10-04T03:02:18.169Z,77.08
2018-10-04T03:03:18.191Z,76.98
2018-10-04T03:04:18.216Z,76.92
2018-10-04T03:05:18.219Z,76.60
2018-10-04T03:06:18.242Z,77.74
2018-10-04T03:07:18.374Z,77.36
2018-10-04T03:08:18.274Z,77.94
2018-10-04T03:09:18.291Z,78.03
2018-10-04T03:10:18.313Z,78.03
2018-10-04T03:11:18.325Z,77.84
2018-10-04T03:12:18.347Z,78.85
2018-10-04T03:13:18.374Z,79.14
2018-10-04T03:14:18.375Z,79.04
2018-10-04T03:15:18.402Z,79.52
2018-10-04T03:16:18.429Z,79.99
2018-10-04T03:18:18.454Z,79.52
2018-10-04T03:19:18.470Z,79.80
2018-10-04T03:20:18.488Z,81.10
2018-10-04T03:21:18.597Z,80.62
2018-10-04T03:22:18.553Z,81.24
2018-10-04T03:23:18.556Z,80.66
2018-10-04T03:24:18.566Z,80.53
2018-10-04T03:25:18.583Z,80.66
2018-10-04T03:26:18.593Z,79.99
2018-10-04T03:27:18.619Z,79.99
2018-10-04T03:28:18.642Z,79.33
2018-10-04T03:29:18.714Z,79.33
2018-10-04T03:30:18.886Z,79.61
2018-10-04T03:31:18.693Z,79.14
2018-10-04T03:32:18.713Z,79.14
2018-10-04T03:33:18.723Z,79.04
2018-10-04T03:34:18.748Z,78.94
2018-10-04T03:35:18.774Z,79.52
2018-10-04T03:36:18.786Z,79.28
2018-10-04T03:37:18.795Z,79.67
2018-10-04T03:38:18.813Z,79.77
2018-10-04T03:39:18.835Z,79.52
2018-10-04T03:40:18.853Z,80.15
2018-10-04T03:41:18.869Z,79.33
2018-10-04T03:42:18.893Z,78.47
2018-10-04T03:43:18.911Z,77.89
2018-10-04T03:44:18.986Z,76.98
2018-10-04T03:45:18.953Z,76.03
2018-10-04T03:46:18.966Z,75.64
2018-10-04T03:47:18.984Z,76.31
2018-10-04T03:48:19.020Z,76.79
2018-10-04T03:49:19.019Z,76.98
2018-10-04T03:50:19.037Z,77.23
2018-10-04T03:51:19.055Z,77.03
2018-10-04T03:52:19.101Z,76.79
2018-10-04T03:53:19.093Z,76.88
2018-10-04T03:54:19.100Z,76.50
2018-10-04T03:55:19.125Z,76.46
2018-10-04T03:56:19.147Z,76.31
2018-10-04T03:57:19.159Z,75.60
2018-10-04T03:58:19.177Z,75.74
2018-10-04T03:59:19.196Z,75.64
2018-10-04T04:00:19.215Z,76.12
2018-10-04T04:01:19.231Z,77.42
2018-10-04T04:03:19.279Z,78.52
2018-10-04T04:04:19.281Z,79.00
2018-10-04T04:05:19.302Z,79.67
2018-10-04T04:06:19.332Z,79.96
2018-10-04T04:07:19.342Z,79.96
2018-10-04T04:08:19.360Z,80.15
2018-10-04T04:09:19.393Z,80.24
2018-10-04T04:10:19.390Z,80.05
2018-10-04T04:11:19.411Z,79.67
2018-10-04T04:12:19.434Z,79.38
2018-10-04T04:13:19.449Z,79.28
2018-10-04T04:14:19.463Z,79.00
2018-10-04T04:15:19.483Z,79.28
2018-10-04T04:16:19.583Z,79.38
2018-10-04T04:17:19.533Z,80.15
2018-10-04T04:18:19.542Z,79.28
2018-10-04T04:19:19.551Z,78.52
2018-10-04T04:20:19.581Z,79.38
2018-10-04T04:21:19.596Z,79.38
2018-10-04T04:22:19.663Z,79.57
2018-10-04T04:23:19.622Z,78.75
2018-10-04T04:24:19.647Z,77.67
2018-10-04T04:25:19.681Z,77.95
2018-10-04T04:26:19.681Z,78.14
2018-10-04T04:27:19.701Z,78.52
2018-10-04T04:28:19.721Z,78.62
2018-10-04T04:29:19.736Z,78.33
2018-10-04T04:30:19.751Z,78.43
2018-10-04T04:31:19.778Z,79.00
2018-10-04T04:32:19.790Z,78.18
2018-10-04T04:33:19.804Z,76.56
2018-10-04T04:34:19.825Z,76.56
2018-10-04T04:35:19.843Z,76.75
2018-10-04T04:36:19.864Z,77.00
2018-10-04T04:37:19.879Z,78.62
2018-10-04T04:38:19.890Z,78.91
2018-10-04T04:39:19.913Z,79.10
2018-10-04T04:40:19.936Z,79.00
2018-10-04T04:41:19.951Z,79.35
2018-10-04T04:42:19.970Z,79.06
2018-10-04T04:43:19.981Z,78.62
2018-10-04T04:44:20.072Z,79.28
2018-10-04T04:45:20.085Z,78.14
2018-10-04T04:46:20.126Z,78.23
2018-10-04T04:47:20.082Z,78.52
2018-10-04T04:48:20.085Z,79.15
2018-10-04T04:49:20.105Z,77.95
2018-10-04T04:50:20.109Z,77.38
2018-10-04T04:51:20.123Z,77.28
2018-10-04T04:52:20.153Z,77.09
2018-10-04T04:53:20.167Z,76.90
2018-10-04T04:54:20.182Z,76.71
2018-10-04T04:55:20.344Z,76.71
2018-10-04T04:56:20.217Z,76.37
2018-10-04T04:57:20.235Z,75.42
2018-10-04T04:58:20.254Z,76.23
2018-10-04T04:59:20.271Z,77.28
2018-10-04T05:00:20.291Z,77.03
2018-10-04T05:01:20.312Z,75.79
2018-10-04T05:02:20.328Z,76.23
2018-10-04T05:03:20.353Z,76.65
2018-10-04T05:04:20.363Z,76.27
2018-10-04T05:05:20.387Z,76.18
2018-10-04T05:06:20.546Z,75.79
2018-10-04T05:07:20.414Z,75.51
2018-10-04T05:08:20.436Z,75.79
2018-10-04T05:09:20.451Z,75.60
2018-10-04T05:10:20.473Z,75.60
2018-10-04T05:11:20.494Z,75.51
2018-10-04T05:12:20.532Z,76.42
2018-10-04T05:13:20.514Z,76.04
2018-10-04T05:14:20.535Z,77.28
2018-10-04T05:15:20.563Z,78.05
2018-10-04T05:16:20.579Z,78.49
2018-10-04T05:17:20.610Z,77.76
2018-10-04T05:18:20.609Z,77.38
2018-10-04T05:19:20.631Z,77.38
2018-10-04T05:20:20.646Z,77.03
2018-10-04T05:21:20.666Z,76.52
2018-10-04T05:22:20.735Z,76.23
2018-10-04T05:23:20.769Z,77.72
2018-10-04T05:24:20.720Z,77.28
2018-10-04T05:25:20.737Z,77.09
2018-10-04T05:26:20.748Z,77.28
2018-10-04T05:27:20.768Z,76.75
2018-10-04T05:28:20.803Z,76.37
2018-10-04T05:29:20.799Z,75.60
2018-10-04T05:30:20.829Z,75.28
2018-10-04T05:31:20.832Z,77.28
2018-10-04T05:32:20.862Z,78.67
2018-10-04T05:33:20.875Z,79.06
2018-10-04T05:34:20.894Z,78.23
2018-10-04T05:35:20.921Z,77.19
2018-10-04T05:36:20.927Z,76.81
2018-10-04T05:37:20.986Z,76.52
2018-10-04T05:38:20.965Z,77.00
2018-10-04T05:39:20.973Z,77.00
2018-10-04T05:40:21.008Z,76.33
2018-10-04T05:41:21.013Z,77.00
2018-10-04T05:42:21.029Z,77.91
2018-10-04T05:43:21.045Z,78.05
2018-10-04T05:44:21.106Z,77.06
2018-10-04T05:45:21.145Z,78.30
2018-10-04T05:46:21.106Z,79.06
2018-10-04T05:47:21.123Z,77.19
2018-10-04T05:48:21.156Z,77.28
2018-10-04T05:49:21.155Z,76.90
2018-10-04T05:50:21.187Z,76.71
2018-10-04T05:51:21.232Z,76.81
2018-10-04T05:52:21.211Z,76.62
2018-10-04T05:53:21.399Z,77.28
2018-10-04T05:54:21.261Z,76.52
2018-10-04T05:55:21.266Z,77.00
2018-10-04T05:56:21.281Z,76.62
2018-10-04T05:57:21.300Z,77.00
2018-10-04T05:58:21.323Z,77.72
2018-10-04T05:59:21.392Z,77.91
2018-10-04T06:00:21.347Z,78.05
2018-10-04T06:01:21.374Z,76.81
2018-10-04T06:02:21.385Z,76.42
2018-10-04T06:03:21.405Z,76.14
2018-10-04T06:04:21.423Z,76.18
2018-10-04T06:05:21.477Z,76.23
2018-10-04T06:06:21.456Z,77.19
2018-10-04T06:07:21.478Z,77.28
2018-10-04T06:08:21.512Z,77.67
2018-10-04T06:09:21.506Z,77.57
2018-10-04T06:10:21.527Z,77.38
2018-10-04T06:11:21.559Z,76.90
2018-10-04T06:12:21.568Z,76.56
2018-10-04T06:13:21.590Z,75.51
2018-10-04T06:14:21.593Z,75.60
2018-10-04T06:15:21.674Z,75.51
2018-10-04T06:16:21.633Z,75.60
2018-10-04T06:17:21.687Z,75.13
2018-10-04T06:18:21.666Z,75.03
2018-10-04T06:19:21.691Z,75.13
2018-10-04T06:20:21.705Z,75.70
2018-10-04T06:21:21.745Z,75.60
2018-10-04T06:22:21.741Z,75.13
2018-10-04T06:23:21.757Z,74.93
2018-10-04T06:24:21.775Z,75.51
2018-10-04T06:25:21.789Z,75.89
2018-10-04T06:26:21.812Z,76.65
2018-10-04T06:27:21.834Z,76.75
2018-10-04T06:28:21.840Z,76.46
2018-10-04T06:29:21.868Z,76.37
2018-10-04T06:30:21.874Z,76.27
2018-10-04T06:31:21.895Z,77.03
2018-10-04T06:32:21.908Z,77.03
2018-10-04T06:33:21.935Z,76.40
2018-10-04T06:34:21.946Z,76.79
2018-10-04T06:35:22.023Z,76.88
2018-10-04T06:36:21.978Z,77.51
2018-10-04T06:37:22.003Z,77.70
2018-10-04T06:38:22.038Z,78.47
2018-10-04T06:39:22.035Z,77.89
2018-10-04T06:40:22.056Z,77.26
2018-10-04T06:41:22.067Z,77.36
2018-10-04T06:42:22.106Z,77.17
2018-10-04T06:43:22.113Z,77.17
2018-10-04T06:44:22.120Z,77.36
2018-10-04T06:45:22.260Z,77.65
2018-10-04T06:46:22.175Z,78.09
2018-10-04T06:47:22.174Z,78.37
2018-10-04T06:48:22.192Z,78.03
2018-10-04T06:49:22.212Z,77.55
2018-10-04T06:50:22.236Z,77.45
2018-10-04T06:51:22.247Z,78.03
2018-10-04T06:52:22.263Z,77.70
2018-10-04T06:53:22.281Z,78.13
2018-10-04T06:54:22.295Z,77.94
2018-10-04T06:55:22.312Z,77.94
2018-10-04T06:56:22.338Z,77.74
2018-10-04T06:57:22.350Z,78.22
2018-10-04T06:58:22.370Z,77.94
2018-10-04T06:59:22.385Z,78.22
2018-10-04T07:00:22.402Z,78.22
2018-10-04T07:01:22.429Z,77.94
2018-10-04T07:02:22.443Z,77.94
2018-10-04T07:03:22.474Z,78.79
2018-10-04T07:04:22.468Z,78.70
2018-10-04T07:05:22.512Z,77.84
2018-10-04T07:06:22.509Z,78.60
2018-10-04T07:07:22.526Z,78.70
2018-10-04T07:08:22.542Z,78.31
2018-10-04T07:09:22.553Z,78.89
2018-10-04T07:10:22.580Z,78.79
2018-10-04T07:11:22.601Z,78.51
2018-10-04T07:12:22.623Z,78.60
2018-10-04T07:13:22.646Z,78.60
2018-10-04T07:14:22.648Z,78.31
2018-10-04T07:15:22.666Z,78.99
2018-10-04T07:16:22.688Z,79.08
2018-10-04T07:17:22.706Z,79.46
2018-10-04T07:18:22.725Z,79.46
2018-10-04T07:19:22.737Z,79.56
2018-10-04T07:20:22.796Z,78.99
2018-10-04T07:21:22.784Z,79.65
2018-10-04T07:22:22.787Z,79.65
2018-10-04T07:23:22.805Z,79.08
2018-10-04T07:24:22.834Z,78.99
2018-10-04T07:25:22.865Z,78.45
2018-10-04T07:26:22.886Z,78.70
2018-10-04T07:27:22.890Z,79.27
2018-10-04T07:28:22.897Z,79.27
2018-10-04T07:29:22.929Z,79.56
2018-10-04T07:30:22.955Z,79.17
2018-10-04T07:31:22.950Z,78.99
2018-10-04T07:32:22.966Z,79.60
2018-10-04T07:33:22.987Z,79.50
2018-10-04T07:34:23.013Z,79.31
2018-10-04T07:35:23.031Z,79.41
2018-10-04T07:36:23.042Z,79.41
2018-10-04T07:37:23.130Z,79.46
2018-10-04T07:38:23.091Z,79.85
2018-10-04T07:39:23.102Z,79.60
2018-10-04T07:40:23.118Z,80.41
2018-10-04T07:41:23.133Z,79.60
2018-10-04T07:42:23.262Z,79.60
2018-10-04T07:43:23.176Z,79.31
2018-10-04T07:44:23.197Z,79.60
2018-10-04T07:45:23.216Z,79.79
2018-10-04T07:46:23.227Z,80.65
2018-10-04T07:47:23.262Z,79.60
2018-10-04T07:48:23.262Z,79.31
2018-10-04T07:49:23.278Z,78.93
2018-10-04T07:50:23.294Z,78.83
2018-10-04T07:51:23.327Z,78.93
2018-10-04T07:52:23.354Z,78.36
2018-10-04T07:53:23.347Z,78.07
2018-10-04T07:54:23.384Z,77.97
2018-10-04T07:55:23.391Z,78.36
2018-10-04T07:56:23.411Z,78.45
2018-10-04T07:57:23.433Z,78.16
2018-10-04T07:58:23.442Z,78.93
2018-10-04T07:59:23.460Z,79.02
2018-10-04T08:00:23.537Z,79.50
2018-10-04T08:01:23.498Z,78.93
2018-10-04T08:02:23.519Z,78.78
2018-10-04T08:03:23.538Z,79.02
2018-10-04T08:04:23.552Z,78.83
2018-10-04T08:05:23.562Z,78.83
2018-10-04T08:06:23.780Z,79.02
2018-10-04T08:07:23.604Z,79.35
2018-10-04T08:08:23.621Z,79.25
2018-10-04T08:09:23.662Z,79.54
2018-10-04T08:10:23.670Z,78.49
2018-10-04T08:11:23.680Z,78.87
2018-10-04T08:12:23.704Z,78.97
2018-10-04T08:13:23.721Z,79.06
2018-10-04T08:14:23.746Z,78.68
2018-10-04T08:15:23.785Z,78.49
2018-10-04T08:16:23.766Z,78.49
2018-10-04T08:17:23.792Z,77.92
2018-10-04T08:18:23.820Z,79.06
2018-10-04T08:19:23.839Z,78.97
2018-10-04T08:20:23.904Z,77.63
2018-10-04T08:21:23.871Z,79.16
2018-10-04T08:22:23.884Z,80.98
2018-10-04T08:23:23.916Z,78.97
2018-10-04T08:24:23.920Z,79.25
2018-10-04T08:25:23.936Z,79.25
2018-10-04T08:26:23.953Z,79.35
2018-10-04T08:27:23.999Z,80.02
2018-10-04T08:28:23.996Z,79.35
2018-10-04T08:29:24.022Z,79.29
2018-10-04T08:30:24.032Z,79.83
2018-10-04T08:31:24.058Z,80.11
2018-10-04T08:32:24.077Z,80.40
2018-10-04T08:33:24.208Z,80.59
2018-10-04T08:34:24.112Z,80.54
2018-10-04T08:35:24.182Z,79.64
2018-10-04T08:36:24.147Z,79.93
2018-10-04T08:37:24.161Z,81.16
2018-10-04T08:38:24.183Z,80.44
2018-10-04T08:39:24.198Z,81.78
2018-10-04T08:40:24.211Z,80.35
2018-10-04T08:41:24.235Z,80.25
2018-10-04T08:42:24.273Z,79.68
2018-10-04T08:43:24.269Z,79.87
2018-10-04T08:44:24.294Z,81.97
2018-10-04T08:45:24.320Z,82.26
2018-10-04T08:46:24.350Z,83.22
2018-10-04T08:47:24.345Z,81.59
2018-10-04T08:48:24.390Z,80.54
2018-10-04T08:49:24.386Z,80.92
2018-10-04T08:50:24.442Z,83.31
2018-10-04T08:51:24.423Z,83.60
2018-10-04T08:52:24.453Z,82.54
2018-10-04T08:53:24.458Z,81.59
2018-10-04T08:54:24.552Z,79.96
2018-10-04T08:55:24.509Z,82.54
2018-10-04T08:56:24.517Z,83.31
2018-10-04T08:57:24.542Z,81.68
2018-10-04T08:58:24.558Z,81.97
2018-10-04T08:59:24.609Z,80.54
2018-10-04T09:00:24.592Z,80.10
2018-10-04T09:01:24.657Z,80.38
2018-10-04T09:02:24.647Z,80.29
2018-10-04T09:03:24.653Z,79.62
2018-10-04T09:04:24.672Z,80.29
2018-10-04T09:05:24.683Z,80.96
2018-10-04T09:06:24.712Z,80.38
2018-10-04T09:07:24.764Z,80.29
2018-10-04T09:08:24.743Z,79.81
2018-10-04T09:09:24.763Z,81.92
2018-10-04T09:10:24.801Z,80.87
2018-10-04T09:11:24.795Z,80.19
2018-10-04T09:12:24.880Z,80.19
2018-10-04T09:13:24.847Z,79.91
2018-10-04T09:14:24.863Z,79.43
2018-10-04T09:15:24.877Z,79.05
2018-10-04T09:16:24.902Z,79.47
2018-10-04T09:17:24.935Z,78.89
2018-10-04T09:18:24.952Z,78.99
2018-10-04T09:19:24.973Z,79.18
2018-10-04T09:20:24.976Z,80.43
2018-10-04T09:21:24.996Z,80.14
2018-10-04T09:22:25.013Z,79.57
2018-10-04T09:23:25.041Z,79.18
2018-10-04T09:24:25.073Z,78.99
2018-10-04T09:25:25.210Z,80.14
2018-10-04T09:26:25.216Z,81.10
2018-10-04T09:27:25.125Z,79.75
2018-10-04T09:28:25.132Z,79.47
2018-10-04T09:29:25.185Z,79.18
2018-10-04T09:30:25.176Z,79.57
2018-10-04T09:31:25.188Z,79.18
2018-10-04T09:32:25.208Z,79.66
2018-10-04T09:33:25.269Z,79.57
2018-10-04T09:34:25.262Z,78.70
2018-10-04T09:35:25.287Z,79.47
2018-10-04T09:36:25.283Z,77.55
2018-10-04T09:37:25.328Z,79.37
2018-10-04T09:38:25.346Z,78.61
2018-10-04T09:39:25.392Z,78.80
2018-10-04T09:40:25.375Z,78.61
2018-10-04T09:41:25.383Z,77.36
2018-10-04T09:42:25.443Z,77.26
2018-10-04T09:43:25.440Z,77.94
2018-10-04T09:44:25.444Z,77.17
2018-10-04T09:45:25.469Z,77.17
2018-10-04T09:46:25.575Z,77.40
2018-10-04T09:47:25.506Z,77.50
2018-10-04T09:48:25.561Z,72.52
2018-10-04T09:49:25.541Z,70.50
2018-10-04T09:50:25.556Z,70.50
2018-10-04T09:51:25.592Z,70.60
2018-10-04T09:52:25.606Z,70.21
2018-10-04T09:53:25.708Z,70.03
2018-10-04T09:54:25.646Z,70.03
2018-10-04T09:56:25.690Z,68.59
2018-10-04T09:57:25.691Z,67.63
2018-10-04T09:58:25.714Z,67.82
2018-10-04T09:59:25.738Z,67.82
2018-10-04T10:00:25.769Z,67.72
2018-10-04T10:01:25.791Z,67.25
2018-10-04T10:02:25.803Z,67.05
2018-10-04T10:03:25.820Z,66.96
2018-10-04T10:04:25.992Z,66.86
2018-10-04T10:05:25.910Z,66.38
2018-10-04T10:06:25.874Z,66.09
2018-10-04T10:07:25.895Z,65.65
2018-10-04T10:08:25.913Z,65.62
2018-10-04T10:09:25.964Z,66.71
2018-10-04T10:10:26.371Z,65.91
2018-10-04T10:11:26.002Z,66.38
2018-10-04T10:12:26.151Z,65.26
2018-10-04T10:13:26.092Z,65.17
2018-10-04T10:14:26.033Z,65.08
2018-10-04T10:15:26.061Z,65.17
2018-10-04T10:16:26.072Z,67.38
2018-10-04T10:17:26.227Z,66.22
2018-10-04T10:18:26.119Z,65.94
2018-10-04T10:19:26.135Z,65.94
2018-10-04T10:20:26.148Z,66.32
2018-10-04T10:21:26.207Z,65.75
2018-10-04T10:22:26.189Z,66.22
2018-10-04T10:23:26.210Z,65.17
2018-10-04T10:24:26.233Z,64.98
2018-10-04T10:25:26.252Z,65.17
2018-10-04T10:26:26.272Z,65.36
2018-10-04T10:27:26.326Z,64.98
2018-10-04T10:28:26.302Z,65.36
2018-10-04T10:29:26.333Z,64.98
2018-10-04T10:30:26.358Z,67.18
2018-10-04T10:31:26.371Z,67.66
2018-10-04T10:32:26.420Z,66.32
2018-10-04T10:33:26.410Z,65.36
2018-10-04T10:34:26.460Z,65.08
2018-10-04T10:35:26.451Z,64.98
2018-10-04T10:36:26.471Z,64.59
2018-10-04T10:37:26.490Z,63.83
2018-10-04T10:38:26.512Z,63.73
2018-10-04T10:39:26.530Z,63.83
2018-10-04T10:40:26.764Z,63.26
2018-10-04T10:41:26.572Z,63.57
2018-10-04T10:42:26.587Z,62.87
2018-10-04T10:43:26.613Z,62.87
2018-10-04T10:44:26.626Z,62.81
2018-10-04T10:45:26.651Z,63.57
2018-10-04T10:46:26.692Z,63.48
2018-10-04T10:47:26.688Z,63.19
2018-10-04T10:48:26.709Z,63.76
2018-10-04T10:49:26.736Z,62.04
2018-10-04T10:50:26.757Z,61.46
2018-10-04T10:51:26.768Z,61.18
2018-10-04T10:52:26.798Z,62.90
2018-10-04T10:53:26.815Z,62.33
2018-10-04T10:54:26.836Z,62.13
2018-10-04T10:55:26.869Z,61.46
2018-10-04T10:56:26.897Z,61.94
2018-10-04T10:57:26.899Z,61.75
2018-10-04T10:58:26.914Z,61.46
2018-10-04T10:59:26.935Z,61.98
2018-10-04T11:00:26.960Z,61.78
2018-10-04T11:01:26.990Z,61.21
2018-10-04T11:02:27.005Z,60.92
2018-10-04T11:03:27.033Z,61.11
2018-10-04T11:04:27.048Z,60.72
2018-10-04T11:05:27.072Z,61.59
2018-10-04T11:06:27.096Z,60.38
2018-10-04T11:07:27.204Z,59.89
2018-10-04T11:08:27.225Z,59.51
2018-10-04T11:09:27.164Z,58.58
2018-10-04T11:10:27.205Z,58.39
2018-10-04T11:11:27.275Z,57.84
2018-10-04T11:12:27.244Z,57.36
2018-10-04T11:13:27.289Z,57.17
2018-10-04T11:14:27.303Z,57.55
2018-10-04T11:15:27.330Z,57.17
2018-10-04T11:16:27.355Z,56.78
2018-10-04T11:17:27.372Z,56.01
2018-10-04T11:18:27.401Z,55.08
2018-10-04T11:19:27.432Z,54.41
2018-10-04T11:20:27.477Z,54.02
2018-10-04T11:21:27.491Z,54.14
2018-10-04T11:22:27.524Z,54.34
2018-10-04T11:23:27.544Z,53.02
2018-10-04T11:24:27.629Z,51.50
2018-10-04T11:25:27.588Z,49.27
2018-10-04T11:26:27.649Z,46.08
2018-10-04T11:27:27.658Z,42.30
2018-10-04T11:28:27.667Z,40.11
2018-10-04T11:29:27.699Z,38.52
2018-10-04T11:30:27.736Z,37.15
2018-10-04T11:31:27.812Z,39.86
2018-10-04T11:32:27.774Z,43.23
2018-10-04T11:33:27.802Z,41.93
2018-10-04T11:34:27.830Z,38.32
2018-10-04T11:35:27.873Z,37.92
2018-10-04T11:36:27.880Z,39.61
2018-10-04T11:37:27.910Z,42.16
2018-10-04T11:38:27.937Z,43.45
2018-10-04T11:39:28.004Z,45.31
2018-10-04T11:40:27.984Z,47.97
2018-10-04T11:41:28.016Z,49.87
2018-10-04T11:42:28.043Z,50.35
2018-10-04T11:43:28.061Z,51.57
2018-10-04T11:44:28.161Z,51.86
2018-10-04T11:45:28.164Z,52.44
2018-10-04T11:46:28.150Z,52.83
2018-10-04T11:47:28.168Z,52.63
2018-10-04T11:48:28.197Z,51.86
2018-10-04T11:49:28.209Z,53.47
2018-10-04T11:50:28.238Z,52.99
2018-10-04T11:51:28.330Z,53.09
2018-10-04T11:52:28.334Z,53.09
2018-10-04T11:53:28.324Z,54.05
2018-10-04T11:54:28.345Z,53.19
2018-10-04T11:55:28.367Z,54.05
2018-10-04T11:56:28.397Z,53.19
2018-10-04T11:57:28.431Z,53.28
2018-10-04T11:58:28.434Z,53.09
2018-10-04T11:59:28.462Z,52.32
2018-10-04T12:00:28.484Z,52.22
2018-10-04T12:01:28.564Z,51.84
2018-10-04T12:02:28.557Z,51.64
2018-10-04T12:03:28.583Z,53.28
2018-10-04T12:04:28.583Z,52.97
2018-10-04T12:05:28.599Z,53.16
2018-10-04T12:06:28.737Z,52.99
2018-10-04T12:07:28.653Z,53.45
2018-10-04T12:08:28.682Z,53.83
2018-10-04T12:09:28.692Z,53.86
2018-10-04T12:10:28.720Z,53.54
2018-10-04T12:11:28.748Z,52.48
2018-10-04T12:12:28.852Z,53.16
2018-10-04T12:13:28.919Z,53.06
2018-10-04T12:14:28.815Z,53.35
2018-10-04T12:15:28.833Z,52.89
2018-10-04T12:16:28.857Z,53.06
2018-10-04T12:17:28.884Z,53.45
2018-10-04T12:19:29.043Z,51.91
2018-10-04T12:20:28.961Z,51.53
2018-10-04T12:21:28.976Z,52.39
2018-10-04T12:22:29.009Z,52.77
2018-10-04T12:23:29.038Z,52.97
2018-10-04T12:24:29.073Z,53.25
2018-10-04T12:25:29.072Z,52.48
2018-10-04T12:26:29.085Z,52.87
2018-10-04T12:27:29.110Z,51.17
2018-10-04T12:28:29.179Z,50.97
2018-10-04T12:29:29.160Z,51.81
2018-10-04T12:30:29.252Z,51.81
2018-10-04T12:31:29.227Z,50.87
2018-10-04T12:32:29.229Z,50.59
2018-10-04T12:33:29.257Z,49.82
2018-10-04T12:34:29.294Z,49.99
2018-10-04T12:35:29.307Z,49.53
2018-10-04T12:36:29.324Z,49.63
2018-10-04T12:37:29.410Z,50.49
2018-10-04T12:38:29.381Z,49.82
2018-10-04T12:39:29.387Z,49.79
2018-10-04T12:40:29.408Z,49.51
2018-10-04T12:41:29.495Z,50.20
2018-10-04T12:42:29.454Z,51.53
2018-10-04T12:43:29.482Z,50.66
2018-10-04T12:44:29.499Z,49.24
2018-10-04T12:45:29.528Z,48.38
2018-10-04T12:46:29.550Z,49.91
2018-10-04T12:47:29.569Z,49.12
2018-10-04T12:48:29.593Z,49.69
2018-10-04T12:49:29.623Z,49.02
2018-10-04T12:50:29.651Z,48.66
2018-10-04T12:51:29.656Z,48.66
2018-10-04T12:52:29.711Z,49.60
2018-10-04T12:53:29.715Z,49.69
2018-10-04T12:54:29.737Z,50.46
2018-10-04T12:55:29.764Z,50.95
2018-10-04T12:56:29.772Z,50.87